Time;durP1;ratioP1;P1;durP2;ratioP2;P2;SDS_P1;SDS_P2;PMS_P1;PMS_P2;Temp;Humidity;BMP_temperature;BMP_pressure;BME280_temperature;BME280_humidity;BME280_pressure;Samples;Min_cycle;Max_cycle;Signal;HPM_P1;HPM_P2
2021/11/22 00:02:06;;;;;;;15.37;12.37;;;11.50;57.00;;;;;;5031245;28;20300;-48
2021/11/22 00:04:33;;;;;;;19.90;13.67;;;11.50;56.90;;;;;;5032489;28;20897;-52
2021/11/22 00:06:59;;;;;;;18.03;11.50;;;11.60;57.00;;;;;;5030919;28;20997;-48
2021/11/22 00:09:24;;;;;;;18.83;12.13;;;11.60;57.00;;;;;;5033425;28;20447;-49
2021/11/22 00:11:50;;;;;;;14.93;12.17;;;11.50;56.90;;;;;;5032651;28;20201;-51
2021/11/22 00:14:16;;;;;;;19.40;12.70;;;11.60;57.00;;;;;;5033414;28;20198;-51
2021/11/22 00:16:42;;;;;;;22.00;13.17;;;11.60;57.00;;;;;;5030708;28;20268;-50
2021/11/22 00:19:08;;;;;;;17.27;12.27;;;11.50;57.10;;;;;;5030674;28;20606;-47
2021/11/22 00:21:34;;;;;;;17.40;11.73;;;11.50;57.20;;;;;;5031579;28;20940;-50
2021/11/22 00:24:00;;;;;;;17.63;12.70;;;11.50;57.30;;;;;;5032069;28;20216;-50
2021/11/22 00:26:25;;;;;;;17.63;12.77;;;11.50;57.20;;;;;;5031183;28;20185;-51
2021/11/22 00:28:51;;;;;;;15.43;11.90;;;11.60;57.20;;;;;;5029174;28;20224;-48
2021/11/22 00:31:16;;;;;;;16.83;12.20;;;11.60;57.10;;;;;;5029906;28;20194;-51
2021/11/22 00:33:44;;;;;;;19.27;12.00;;;11.60;56.90;;;;;;5031156;28;20567;-47
2021/11/22 00:36:10;;;;;;;15.43;11.17;;;11.60;56.70;;;;;;5030681;28;20312;-49
2021/11/22 00:38:36;;;;;;;14.80;11.10;;;11.60;56.80;;;;;;5031307;28;20436;-46
2021/11/22 00:41:03;;;;;;;16.30;10.87;;;11.60;56.90;;;;;;5027243;28;20476;-52
2021/11/22 00:43:28;;;;;;;16.13;11.50;;;11.60;56.90;;;;;;5026639;28;20523;-50
2021/11/22 00:45:55;;;;;;;15.97;12.80;;;11.50;57.20;;;;;;5027287;28;20988;-46
2021/11/22 00:48:21;;;;;;;18.73;12.03;;;11.50;57.20;;;;;;5024550;28;20264;-50
2021/11/22 00:50:52;;;;;;;16.10;11.57;;;11.50;57.20;;;;;;5023968;28;20483;-47
2021/11/22 00:53:18;;;;;;;14.47;12.50;;;11.50;57.20;;;;;;5023979;28;20828;-49
2021/11/22 00:55:44;;;;;;;14.47;10.77;;;11.50;57.30;;;;;;5029268;28;20502;-49
2021/11/22 00:58:10;;;;;;;11.97;10.67;;;11.50;57.50;;;;;;5031899;28;20432;-51
2021/11/22 01:00:36;;;;;;;15.10;12.20;;;11.50;57.40;;;;;;5031687;28;20443;-50
2021/11/22 01:03:03;;;;;;;18.33;11.80;;;11.50;57.40;;;;;;5029652;28;20789;-50
2021/11/22 01:05:29;;;;;;;17.77;11.70;;;11.60;57.30;;;;;;5030375;28;20416;-47
2021/11/22 01:07:54;;;;;;;17.40;12.13;;;11.60;57.30;;;;;;5029537;28;20814;-48
2021/11/22 01:10:22;;;;;;;16.83;12.30;;;11.60;57.30;;;;;;5028916;28;20490;-47
2021/11/22 01:12:48;;;;;;;18.00;12.50;;;11.60;57.20;;;;;;5026831;28;20185;-48
2021/11/22 01:15:19;;;;;;;16.70;12.97;;;11.50;57.30;;;;;;5030582;28;20432;-46
2021/11/22 01:17:46;;;;;;;16.77;12.87;;;11.50;57.40;;;;;;5031205;28;20468;-48
2021/11/22 01:20:17;;;;;;;15.57;11.10;;;11.60;57.50;;;;;;5028873;28;20497;-48
2021/11/22 01:22:43;;;;;;;19.87;12.40;;;11.60;57.50;;;;;;5028346;28;20537;-48
2021/11/22 01:25:11;;;;;;;14.70;11.80;;;11.60;57.60;;;;;;5029539;28;20910;-46
2021/11/22 01:27:37;;;;;;;15.40;11.20;;;11.60;57.60;;;;;;5030030;28;20440;-47
2021/11/22 01:30:08;;;;;;;17.37;12.10;;;11.50;57.60;;;;;;5030925;28;20489;-48
2021/11/22 01:32:34;;;;;;;18.47;12.77;;;11.60;57.80;;;;;;5030690;28;20185;-49
2021/11/22 01:35:00;;;;;;;17.07;12.50;;;11.50;58.00;;;;;;5031356;28;20505;-49
2021/11/22 01:37:25;;;;;;;16.07;12.20;;;11.50;57.80;;;;;;5030649;28;20521;-50
2021/11/22 01:39:51;;;;;;;14.50;11.70;;;11.50;57.80;;;;;;5028882;28;20200;-46
2021/11/22 01:42:17;;;;;;;17.10;12.80;;;11.50;57.90;;;;;;5030005;28;20228;-46
2021/11/22 01:44:42;;;;;;;17.90;12.03;;;11.50;57.90;;;;;;5029562;28;20185;-49
2021/11/22 01:47:08;;;;;;;20.67;12.90;;;11.50;57.90;;;;;;5029413;28;20194;-47
2021/11/22 01:49:35;;;;;;;19.17;13.47;;;11.50;57.90;;;;;;5031349;28;20201;-47
2021/11/22 01:52:01;;;;;;;16.10;12.60;;;11.50;57.80;;;;;;5029712;28;20228;-51
2021/11/22 01:54:27;;;;;;;19.80;13.23;;;11.60;57.80;;;;;;5028513;28;20464;-47
2021/11/22 01:56:52;;;;;;;18.93;13.40;;;11.60;57.70;;;;;;5029737;28;20455;-47
2021/11/22 01:59:18;;;;;;;16.67;13.40;;;11.60;57.60;;;;;;5027216;28;20653;-48
2021/11/22 02:01:46;;;;;;;18.50;12.30;;;11.50;57.70;;;;;;5025584;28;20754;-49
2021/11/22 02:04:13;;;;;;;16.70;12.77;;;11.50;57.80;;;;;;5029723;28;20193;-47
2021/11/22 02:06:39;;;;;;;17.73;13.13;;;11.60;57.80;;;;;;5028033;28;20924;-52
2021/11/22 02:09:05;;;;;;;17.90;13.70;;;11.60;57.80;;;;;;5030788;28;20807;-46
2021/11/22 02:11:33;;;;;;;19.17;13.80;;;11.50;57.80;;;;;;5030934;28;20515;-51
2021/11/22 02:13:58;;;;;;;22.83;13.60;;;11.50;57.90;;;;;;5030428;28;20440;-47
2021/11/22 02:16:27;;;;;;;15.77;12.70;;;11.60;57.90;;;;;;5030712;28;20482;-48
2021/11/22 02:18:55;;;;;;;19.17;13.87;;;11.60;57.90;;;;;;5033803;28;20463;-46
2021/11/22 02:21:21;;;;;;;18.00;12.77;;;11.50;58.00;;;;;;5034123;28;20467;-46
2021/11/22 02:23:47;;;;;;;22.33;14.57;;;11.50;58.00;;;;;;5033279;28;20423;-47
2021/11/22 02:26:13;;;;;;;23.30;13.70;;;11.50;58.10;;;;;;5033767;28;20495;-50
2021/11/22 02:28:39;;;;;;;20.33;14.10;;;11.60;58.20;;;;;;5033979;28;20747;-50
2021/11/22 02:31:05;;;;;;;19.73;13.60;;;11.60;58.30;;;;;;5034079;28;20436;-50
2021/11/22 02:33:31;;;;;;;20.03;13.83;;;11.60;58.30;;;;;;5030370;28;20994;-50
2021/11/22 02:35:59;;;;;;;20.90;13.00;;;11.60;58.40;;;;;;5031953;28;20220;-48
2021/11/22 02:38:34;;;;;;;19.10;12.50;;;11.60;58.40;;;;;;5030935;28;20432;-49
2021/11/22 02:41:01;;;;;;;21.73;13.60;;;11.60;58.50;;;;;;5033654;28;20496;-47
2021/11/22 02:43:28;;;;;;;18.13;13.30;;;11.60;58.70;;;;;;5028997;28;20527;-48
2021/11/22 02:45:55;;;;;;;23.40;13.50;;;11.60;58.80;;;;;;5033109;28;20428;-50
2021/11/22 02:48:20;;;;;;;24.20;15.70;;;11.60;58.90;;;;;;5033443;28;20435;-50
2021/11/22 02:50:46;;;;;;;23.90;15.70;;;11.60;59.00;;;;;;5023385;28;20436;-48
2021/11/22 02:53:12;;;;;;;30.40;16.50;;;11.60;58.90;;;;;;5033847;28;20557;-51
2021/11/22 02:55:38;;;;;;;22.27;14.10;;;11.60;58.90;;;;;;5032074;28;20454;-51
2021/11/22 02:58:04;;;;;;;23.07;13.97;;;11.60;59.00;;;;;;5031992;28;20428;-48
2021/11/22 03:00:33;;;;;;;26.63;15.87;;;11.60;59.00;;;;;;5032357;28;20523;-49
2021/11/22 03:02:59;;;;;;;29.13;15.63;;;11.60;59.20;;;;;;5030686;28;20225;-48
2021/11/22 03:05:25;;;;;;;23.57;14.13;;;11.60;59.30;;;;;;5033143;28;20477;-48
2021/11/22 03:07:53;;;;;;;26.77;16.00;;;11.60;59.30;;;;;;5027425;28;20221;-47
2021/11/22 03:10:22;;;;;;;26.33;15.17;;;11.60;59.30;;;;;;5032129;28;20447;-47
2021/11/22 03:12:48;;;;;;;22.80;14.70;;;11.60;59.20;;;;;;5030771;28;20459;-48
2021/11/22 03:15:17;;;;;;;24.80;14.63;;;11.60;59.20;;;;;;5033337;28;20431;-50
2021/11/22 03:17:43;;;;;;;25.80;16.53;;;11.60;59.30;;;;;;5027056;28;20464;-52
2021/11/22 03:20:12;;;;;;;28.17;14.73;;;11.60;59.50;;;;;;5033154;28;20475;-50
2021/11/22 03:22:38;;;;;;;24.80;15.57;;;11.50;59.50;;;;;;5033024;28;20581;-52
2021/11/22 03:25:07;;;;;;;24.50;15.47;;;11.50;60.30;;;;;;5033639;28;20482;-51
2021/11/22 03:27:32;;;;;;;31.40;17.10;;;11.60;59.70;;;;;;5031700;28;20982;-51
2021/11/22 03:29:58;;;;;;;22.43;15.33;;;11.60;59.80;;;;;;5028742;28;20436;-48
2021/11/22 03:32:24;;;;;;;28.43;15.37;;;11.60;59.80;;;;;;5032296;28;20551;-52
2021/11/22 03:34:50;;;;;;;24.10;15.73;;;11.50;59.90;;;;;;5033775;28;20281;-51
2021/11/22 03:37:16;;;;;;;23.40;14.63;;;11.60;60.10;;;;;;5031433;28;20208;-50
2021/11/22 03:39:46;;;;;;;31.67;16.90;;;11.50;59.90;;;;;;5032901;28;22373;-51
2021/11/22 03:42:15;;;;;;;30.77;16.83;;;11.50;59.90;;;;;;5031420;28;20237;-50
2021/11/22 03:44:42;;;;;;;29.53;16.10;;;11.50;60.10;;;;;;5032544;28;20444;-50
2021/11/22 03:47:07;;;;;;;29.77;15.57;;;11.50;60.20;;;;;;5031968;28;20468;-51
2021/11/22 03:49:34;;;;;;;25.83;15.63;;;11.60;60.30;;;;;;5032438;28;20474;-46
2021/11/22 03:52:00;;;;;;;27.17;15.77;;;11.60;60.40;;;;;;5032269;28;20201;-51
2021/11/22 03:54:26;;;;;;;24.70;16.20;;;11.50;60.30;;;;;;5032823;28;20475;-50
2021/11/22 03:56:52;;;;;;;23.17;13.90;;;11.50;60.60;;;;;;5030030;28;20451;-51
2021/11/22 03:59:18;;;;;;;31.27;16.37;;;11.50;60.60;;;;;;5030886;28;20440;-48
2021/11/22 04:01:43;;;;;;;24.67;14.13;;;11.60;60.70;;;;;;5031652;28;20225;-52
2021/11/22 04:04:10;;;;;;;24.80;15.23;;;11.50;60.60;;;;;;5032375;28;20629;-48
2021/11/22 04:06:36;;;;;;;26.73;14.17;;;11.50;60.50;;;;;;5031237;28;20197;-48
2021/11/22 04:09:02;;;;;;;31.10;15.60;;;11.50;60.60;;;;;;5033056;28;20442;-51
2021/11/22 04:11:28;;;;;;;22.80;14.77;;;11.50;60.80;;;;;;5032448;28;20193;-52
2021/11/22 04:13:54;;;;;;;29.10;16.07;;;11.50;60.80;;;;;;5030115;28;20501;-52
2021/11/22 04:16:20;;;;;;;29.20;16.90;;;11.50;60.80;;;;;;5028898;28;20193;-52
2021/11/22 04:18:46;;;;;;;25.40;14.50;;;11.50;60.90;;;;;;5028074;28;20290;-47
2021/11/22 04:21:15;;;;;;;23.97;14.77;;;11.50;61.00;;;;;;5028478;28;20956;-51
2021/11/22 04:23:41;;;;;;;24.60;14.97;;;11.50;61.10;;;;;;5028566;28;20266;-52
2021/11/22 04:26:10;;;;;;;25.30;15.73;;;11.50;61.10;;;;;;5021799;28;20437;-50
2021/11/22 04:28:36;;;;;;;43.67;16.87;;;11.50;61.20;;;;;;5028626;28;20189;-48
2021/11/22 04:31:02;;;;;;;33.57;16.20;;;11.60;61.30;;;;;;5031497;28;20924;-48
2021/11/22 04:33:27;;;;;;;32.13;17.43;;;11.50;61.10;;;;;;5032062;28;20436;-51
2021/11/22 04:35:53;;;;;;;24.43;15.07;;;11.60;61.20;;;;;;5031644;28;20272;-50
2021/11/22 04:38:19;;;;;;;23.20;15.13;;;11.60;61.00;;;;;;5033066;28;20267;-51
2021/11/22 04:40:44;;;;;;;27.80;16.23;;;11.60;60.90;;;;;;5031322;28;20204;-47
2021/11/22 04:43:10;;;;;;;24.70;16.00;;;11.50;61.10;;;;;;5032531;28;20618;-51
2021/11/22 04:45:35;;;;;;;24.60;15.47;;;11.60;61.10;;;;;;5031131;28;20715;-50
2021/11/22 04:48:05;;;;;;;23.17;14.70;;;11.60;61.00;;;;;;5031636;28;20565;-51
2021/11/22 04:50:31;;;;;;;22.33;14.47;;;11.60;60.90;;;;;;5031717;28;20197;-49
2021/11/22 04:52:57;;;;;;;23.80;14.20;;;11.60;61.20;;;;;;5029824;28;20432;-46
2021/11/22 04:55:24;;;;;;;21.03;15.30;;;11.50;61.10;;;;;;5031683;28;20193;-51
2021/11/22 04:57:50;;;;;;;28.17;16.03;;;11.50;61.10;;;;;;5030930;28;20519;-49
2021/11/22 05:00:18;;;;;;;20.73;13.80;;;11.50;61.10;;;;;;5031980;28;20478;-51
2021/11/22 05:02:45;;;;;;;23.40;15.13;;;11.50;61.20;;;;;;5031890;28;20475;-50
2021/11/22 05:05:13;;;;;;;20.07;14.10;;;11.40;61.20;;;;;;5032342;28;20439;-51
2021/11/22 05:07:40;;;;;;;20.07;14.37;;;11.40;61.60;;;;;;5031884;28;20428;-51
2021/11/22 05:10:07;;;;;;;19.83;13.27;;;11.40;61.80;;;;;;5032775;28;20923;-51
2021/11/22 05:12:32;;;;;;;24.10;15.47;;;11.40;61.90;;;;;;5031806;28;20439;-48
2021/11/22 05:14:59;;;;;;;20.23;13.80;;;11.40;61.70;;;;;;5031900;28;20530;-49
2021/11/22 05:17:24;;;;;;;17.40;13.10;;;11.50;61.60;;;;;;5046827;28;20291;-47
2021/11/22 05:19:50;;;;;;;22.47;14.00;;;11.50;61.50;;;;;;5030125;28;20436;-47
2021/11/22 05:22:21;;;;;;;20.77;14.50;;;11.50;61.50;;;;;;5031259;28;20559;-52
2021/11/22 05:24:49;;;;;;;19.47;14.63;;;11.50;61.40;;;;;;5031546;28;20201;-50
2021/11/22 05:27:32;;;;;;;18.70;12.80;;;11.50;61.30;;;;;;5025621;28;20447;-47
2021/11/22 05:29:58;;;;;;;18.70;13.10;;;11.50;61.50;;;;;;5029325;28;20446;-50
2021/11/22 05:32:24;;;;;;;18.23;13.60;;;11.50;61.40;;;;;;5028432;28;20784;-48
2021/11/22 05:34:53;;;;;;;23.70;14.47;;;11.50;61.70;;;;;;5031422;28;20431;-49
2021/11/22 05:37:19;;;;;;;20.20;14.17;;;11.50;61.90;;;;;;5030258;28;20195;-49
2021/11/22 05:39:46;;;;;;;19.30;13.77;;;11.50;61.90;;;;;;5030371;28;20440;-50
2021/11/22 05:42:13;;;;;;;18.60;14.53;;;11.50;62.00;;;;;;5029787;28;20486;-51
2021/11/22 05:44:38;;;;;;;18.30;13.43;;;11.40;62.40;;;;;;5023632;28;20515;-52
2021/11/22 05:47:06;;;;;;;18.90;13.57;;;11.40;62.40;;;;;;5029365;28;20942;-51
2021/11/22 05:49:33;;;;;;;18.47;13.57;;;11.40;62.20;;;;;;5031028;28;20213;-48
2021/11/22 05:52:00;;;;;;;20.23;13.73;;;11.40;62.20;;;;;;5029809;28;20468;-50
2021/11/22 05:54:26;;;;;;;21.23;13.60;;;11.40;62.30;;;;;;5030470;28;20432;-51
2021/11/22 05:56:53;;;;;;;22.13;15.50;;;11.40;62.40;;;;;;5030518;28;20807;-47
2021/11/22 05:59:19;;;;;;;21.70;13.27;;;11.40;62.40;;;;;;5031089;28;20450;-48
2021/11/22 06:01:45;;;;;;;20.50;13.80;;;11.50;62.30;;;;;;5029814;28;20488;-48
2021/11/22 06:04:11;;;;;;;20.70;15.30;;;11.50;62.20;;;;;;5029855;28;20430;-51
2021/11/22 06:06:37;;;;;;;22.10;13.80;;;11.50;62.20;;;;;;5029692;28;20806;-50
2021/11/22 06:09:03;;;;;;;18.60;12.97;;;11.50;62.00;;;;;;5030996;28;20190;-50
2021/11/22 06:11:29;;;;;;;18.37;12.50;;;11.50;62.00;;;;;;5030507;28;20649;-46
2021/11/22 06:13:55;;;;;;;17.80;13.30;;;11.50;62.00;;;;;;5031308;28;20497;-47
2021/11/22 06:16:20;;;;;;;21.27;13.67;;;11.50;61.90;;;;;;5028361;28;20428;-47
2021/11/22 06:18:46;;;;;;;17.87;13.40;;;11.60;62.30;;;;;;5031607;28;20229;-47
2021/11/22 06:21:12;;;;;;;18.10;12.80;;;11.70;62.80;;;;;;5030135;28;20233;-48
2021/11/22 06:23:37;;;;;;;17.87;13.23;;;11.90;62.80;;;;;;5031212;28;20189;-47
2021/11/22 06:26:03;;;;;;;18.73;11.13;;;12.10;62.80;;;;;;5029668;28;20216;-47
2021/11/22 06:28:29;;;;;;;21.53;12.60;;;12.20;62.20;;;;;;5031319;28;20200;-47
2021/11/22 06:30:54;;;;;;;13.07;10.50;;;12.40;61.90;;;;;;5027852;28;20439;-47
2021/11/22 06:33:20;;;;;;;15.13;12.30;;;12.50;61.30;;;;;;5030986;28;20216;-47
2021/11/22 06:35:45;;;;;;;15.20;11.37;;;12.60;60.60;;;;;;5029604;28;20197;-46
2021/11/22 06:38:12;;;;;;;15.70;12.63;;;12.70;60.10;;;;;;5031204;28;20537;-49
2021/11/22 06:40:38;;;;;;;18.90;12.67;;;12.80;59.60;;;;;;5029079;28;20193;-47
2021/11/22 06:43:04;;;;;;;15.40;11.77;;;12.80;59.20;;;;;;5028666;28;21010;-49
2021/11/22 06:45:30;;;;;;;15.53;12.47;;;12.80;58.80;;;;;;5029108;28;20193;-47
2021/11/22 06:47:56;;;;;;;15.53;12.10;;;12.80;58.70;;;;;;5029921;28;20451;-47
2021/11/22 06:50:23;;;;;;;16.27;11.33;;;12.70;58.60;;;;;;5030658;28;20593;-46
2021/11/22 06:52:49;;;;;;;16.43;11.00;;;12.70;58.70;;;;;;5030061;28;20280;-46
2021/11/22 06:55:15;;;;;;;14.07;11.00;;;12.80;58.90;;;;;;5030637;28;20439;-47
2021/11/22 06:57:41;;;;;;;15.83;10.80;;;12.80;58.80;;;;;;5029207;28;20437;-47
2021/11/22 07:00:09;;;;;;;14.53;11.07;;;12.90;58.60;;;;;;5030512;28;20189;-47
2021/11/22 07:02:37;;;;;;;13.17;10.60;;;12.80;58.50;;;;;;5026294;28;20480;-48
2021/11/22 07:05:04;;;;;;;13.83;11.50;;;12.80;58.60;;;;;;5034164;28;20468;-47
2021/11/22 07:07:29;;;;;;;15.33;11.80;;;12.90;58.70;;;;;;5033587;28;20923;-47
2021/11/22 07:09:55;;;;;;;14.23;12.73;;;12.90;58.50;;;;;;5033597;28;20442;-47
2021/11/22 07:12:21;;;;;;;12.77;10.17;;;12.90;58.30;;;;;;5030740;28;20256;-47
2021/11/22 07:14:46;;;;;;;15.07;11.80;;;12.90;58.40;;;;;;5033780;28;20208;-48
2021/11/22 07:17:14;;;;;;;15.53;11.90;;;12.90;58.40;;;;;;5033557;28;20269;-47
2021/11/22 07:19:41;;;;;;;16.93;11.40;;;12.80;58.40;;;;;;5033415;28;20197;-50
2021/11/22 07:22:09;;;;;;;13.97;10.33;;;12.90;58.50;;;;;;5040197;28;20487;-50
2021/11/22 07:24:38;;;;;;;12.13;10.20;;;12.80;58.40;;;;;;5032066;28;20928;-46
2021/11/22 07:27:04;;;;;;;13.20;11.00;;;12.80;59.10;;;;;;5031694;28;20443;-49
2021/11/22 07:29:30;;;;;;;12.37;9.77;;;12.80;58.60;;;;;;5034256;28;20423;-46
2021/11/22 07:31:56;;;;;;;15.40;10.60;;;12.70;58.70;;;;;;5033196;28;20531;-47
2021/11/22 07:34:22;;;;;;;11.03;8.80;;;12.70;58.80;;;;;;5034279;28;20257;-47
2021/11/22 07:36:48;;;;;;;12.40;10.27;;;12.70;58.90;;;;;;5033292;28;20458;-48
2021/11/22 07:39:14;;;;;;;12.77;9.90;;;12.80;58.90;;;;;;5032508;28;20448;-47
2021/11/22 07:41:40;;;;;;;13.70;10.57;;;12.70;58.70;;;;;;5033162;28;20294;-48
2021/11/22 07:44:06;;;;;;;10.47;8.70;;;12.60;59.00;;;;;;5034056;28;20436;-47
2021/11/22 07:46:32;;;;;;;10.47;9.00;;;12.60;59.10;;;;;;5033200;28;20827;-47
2021/11/22 07:48:58;;;;;;;11.20;8.83;;;12.50;59.20;;;;;;5033953;28;20425;-47
2021/11/22 07:51:24;;;;;;;11.47;8.80;;;12.50;59.30;;;;;;5033219;28;20204;-47
2021/11/22 07:53:50;;;;;;;12.17;8.93;;;12.50;59.40;;;;;;5033581;28;20189;-48
2021/11/22 07:56:15;;;;;;;10.47;8.60;;;12.60;59.80;;;;;;5032735;28;20435;-47
2021/11/22 07:58:41;;;;;;;11.47;9.00;;;12.70;59.70;;;;;;5033870;28;20197;-48
2021/11/22 08:01:07;;;;;;;10.60;8.57;;;12.80;59.50;;;;;;5033157;28;20272;-48
2021/11/22 08:03:33;;;;;;;11.60;9.13;;;12.90;59.40;;;;;;5033554;28;20208;-49
2021/11/22 08:06:00;;;;;;;10.90;9.47;;;12.90;59.30;;;;;;5030692;28;20197;-52
2021/11/22 08:08:29;;;;;;;12.20;8.80;;;13.00;59.20;;;;;;5033850;28;20522;-48
2021/11/22 08:13:34;;;;;;;8.60;7.10;;;13.00;58.80;;;;;;5033153;28;20450;-49
2021/11/22 08:16:02;;;;;;;9.50;8.50;;;13.00;58.70;;;;;;5031780;28;20420;-48
2021/11/22 08:18:27;;;;;;;10.47;8.00;;;13.00;58.90;;;;;;5033395;28;20464;-49
2021/11/22 08:20:55;;;;;;;8.83;7.33;;;13.00;59.50;;;;;;5032742;28;20435;-48
2021/11/22 08:23:20;;;;;;;8.57;7.67;;;13.10;59.10;;;;;;5033400;28;20268;-50
2021/11/22 08:25:46;;;;;;;10.87;7.00;;;13.20;59.20;;;;;;5031819;28;20602;-48
2021/11/22 08:28:12;;;;;;;12.63;7.23;;;13.20;59.50;;;;;;5033465;28;20189;-48
2021/11/22 08:30:38;;;;;;;11.00;7.70;;;13.30;58.80;;;;;;5032154;28;20205;-52
2021/11/22 08:33:04;;;;;;;10.40;8.20;;;13.20;58.50;;;;;;5032115;28;20236;-51
2021/11/22 08:35:33;;;;;;;8.30;7.50;;;13.10;58.60;;;;;;5031874;28;20431;-48
2021/11/22 08:38:00;;;;;;;8.63;7.67;;;13.10;58.70;;;;;;5033056;28;20434;-48
2021/11/22 08:40:27;;;;;;;8.27;7.33;;;13.00;59.00;;;;;;5032821;28;20455;-51
2021/11/22 08:42:54;;;;;;;8.17;7.13;;;13.00;59.10;;;;;;5032628;28;20495;-50
2021/11/22 08:45:21;;;;;;;7.90;6.60;;;12.90;59.30;;;;;;5031967;28;20458;-49
2021/11/22 08:47:48;;;;;;;9.63;6.80;;;12.90;59.50;;;;;;5032381;28;20434;-52
2021/11/22 08:50:14;;;;;;;8.03;6.63;;;12.90;59.60;;;;;;5032804;28;20495;-52
2021/11/22 08:52:41;;;;;;;8.90;6.30;;;12.90;59.80;;;;;;5032255;28;20420;-50
2021/11/22 08:55:08;;;;;;;8.40;7.13;;;12.90;59.70;;;;;;5032347;28;20428;-48
2021/11/22 08:57:35;;;;;;;8.13;6.33;;;12.90;59.90;;;;;;5030581;28;20531;-51
2021/11/22 09:00:08;;;;;;;9.77;6.80;;;13.00;60.00;;;;;;5032487;28;20515;-48
2021/11/22 09:02:33;;;;;;;7.47;5.57;;;13.10;60.10;;;;;;5032040;28;20488;-53
2021/11/22 09:04:59;;;;;;;6.43;5.83;;;13.00;60.00;;;;;;5032030;28;20822;-47
2021/11/22 09:07:25;;;;;;;7.50;6.60;;;13.10;60.50;;;;;;5031516;28;20209;-47
2021/11/22 09:09:50;;;;;;;11.10;5.87;;;13.10;60.50;;;;;;5032737;28;20612;-47
2021/11/22 09:12:16;;;;;;;8.67;6.83;;;13.20;60.30;;;;;;5031910;28;20276;-50
2021/11/22 09:14:42;;;;;;;14.60;8.40;;;13.20;59.80;;;;;;5031984;28;20186;-48
2021/11/22 09:17:08;;;;;;;11.67;7.27;;;13.30;60.00;;;;;;5031183;28;20237;-47
2021/11/22 09:19:34;;;;;;;6.70;5.73;;;13.30;59.80;;;;;;5032465;28;20193;-51
2021/11/22 09:21:59;;;;;;;8.27;6.63;;;13.40;59.80;;;;;;5031721;28;20483;-48
2021/11/22 09:24:25;;;;;;;8.93;7.27;;;13.50;59.80;;;;;;5030412;28;20301;-47
2021/11/22 09:26:51;;;;;;;10.10;7.40;;;13.60;59.70;;;;;;5030545;28;20193;-50
2021/11/22 09:29:16;;;;;;;8.40;6.90;;;13.60;59.60;;;;;;5029464;28;20197;-51
2021/11/22 09:31:42;;;;;;;8.17;7.30;;;13.70;59.50;;;;;;5028590;28;20186;-50
2021/11/22 09:34:08;;;;;;;7.20;6.50;;;13.70;59.50;;;;;;5030125;28;20192;-48
2021/11/22 09:36:33;;;;;;;7.80;7.00;;;13.70;59.50;;;;;;5029774;28;20189;-51
2021/11/22 09:38:59;;;;;;;10.20;6.03;;;13.80;59.50;;;;;;5030858;28;20645;-50
2021/11/22 09:41:28;;;;;;;7.50;6.80;;;13.80;59.50;;;;;;5029146;28;20209;-47
2021/11/22 09:43:55;;;;;;;9.90;6.97;;;13.90;59.40;;;;;;5030083;28;20197;-52
2021/11/22 09:46:21;;;;;;;7.53;6.80;;;13.90;59.00;;;;;;5029310;28;20428;-49
2021/11/22 09:48:47;;;;;;;7.33;6.73;;;13.90;58.90;;;;;;5031275;28;20436;-52
2021/11/22 09:51:13;;;;;;;10.33;6.90;;;13.90;59.10;;;;;;5029670;28;20438;-48
2021/11/22 09:53:40;;;;;;;10.87;6.27;;;13.80;58.90;;;;;;5030068;28;20190;-49
2021/11/22 09:56:06;;;;;;;6.83;6.10;;;13.70;59.00;;;;;;5030366;28;20447;-52
2021/11/22 09:58:32;;;;;;;8.33;6.90;;;13.70;58.90;;;;;;5031448;28;20428;-47
2021/11/22 10:01:04;;;;;;;9.57;7.10;;;13.70;59.00;;;;;;5027688;28;20439;-50
2021/11/22 10:03:30;;;;;;;9.03;6.77;;;13.80;58.90;;;;;;5019693;28;20432;-47
2021/11/22 10:06:01;;;;;;;6.27;5.67;;;13.70;58.40;;;;;;5029448;28;20473;-52
2021/11/22 10:08:28;;;;;;;6.33;5.63;;;13.60;58.80;;;;;;5029722;28;20332;-48
2021/11/22 10:11:00;;;;;;;6.77;6.00;;;13.50;58.90;;;;;;5027714;28;20436;-49
2021/11/22 10:13:30;;;;;;;6.53;5.77;;;13.40;58.70;;;;;;5030693;28;21222;-47
2021/11/22 10:16:23;;;;;;;7.33;6.07;;;13.20;58.70;;;;;;5028296;28;20484;-47
2021/11/22 10:18:57;;;;;;;9.97;5.83;;;13.10;59.00;;;;;;5029747;28;20476;-47
2021/11/22 10:21:29;;;;;;;5.80;5.20;;;13.20;59.00;;;;;;5027174;28;20499;-47
2021/11/22 10:24:10;;;;;;;5.80;5.10;;;13.10;58.90;;;;;;5030213;28;20436;-51
2021/11/22 10:26:41;;;;;;;8.37;6.20;;;12.80;58.80;;;;;;5028905;28;20456;-48
2021/11/22 10:29:09;;;;;;;6.33;5.00;;;12.70;59.70;;;;;;5027126;28;20439;-47
2021/11/22 10:31:36;;;;;;;11.17;5.57;;;12.70;59.90;;;;;;5024147;28;20512;-48
2021/11/22 10:34:02;;;;;;;9.50;5.53;;;12.90;60.40;;;;;;5027790;28;20432;-48
2021/11/22 10:36:29;;;;;;;4.40;4.00;;;12.90;59.80;;;;;;5029727;28;21533;-48
2021/11/22 10:38:57;;;;;;;7.87;5.70;;;12.90;59.90;;;;;;5032814;28;20997;-50
2021/11/22 10:41:34;;;;;;;7.70;5.80;;;12.70;59.80;;;;;;5027417;28;20483;-48
2021/11/22 10:44:06;;;;;;;6.53;5.70;;;12.80;60.50;;;;;;5026775;28;20447;-49
2021/11/22 10:46:38;;;;;;;8.00;5.30;;;12.90;60.50;;;;;;5034835;28;20861;-50
2021/11/22 10:49:15;;;;;;;6.80;5.77;;;13.10;60.50;;;;;;5032384;28;20443;-49
2021/11/22 10:51:47;;;;;;;6.23;5.70;;;13.30;60.50;;;;;;5032695;28;20448;-49
2021/11/22 10:54:18;;;;;;;10.20;5.70;;;13.20;60.50;;;;;;5034893;28;20444;-49
2021/11/22 10:56:50;;;;;;;6.50;5.30;;;13.30;60.60;;;;;;5022091;28;20439;-48
2021/11/22 10:59:21;;;;;;;5.93;5.33;;;13.30;60.80;;;;;;5029879;28;20807;-47
2021/11/22 11:01:49;;;;;;;5.97;5.37;;;13.30;60.00;;;;;;5032854;28;20493;-49
2021/11/22 11:04:19;;;;;;;7.13;5.70;;;13.40;60.00;;;;;;5032950;28;20490;-49
2021/11/22 11:06:47;;;;;;;8.30;5.73;;;13.40;60.00;;;;;;5029070;28;20432;-47
2021/11/22 11:09:17;;;;;;;7.90;5.43;;;13.50;60.00;;;;;;5031927;28;20483;-47
2021/11/22 11:11:44;;;;;;;7.80;5.17;;;13.60;59.80;;;;;;5032747;28;20823;-49
2021/11/22 11:14:14;;;;;;;7.27;6.50;;;13.50;59.60;;;;;;5036175;28;20436;-49
2021/11/22 11:16:41;;;;;;;7.47;5.60;;;13.60;59.40;;;;;;5037152;28;20514;-48
2021/11/22 11:19:09;;;;;;;8.47;5.77;;;13.50;59.30;;;;;;5031899;28;21340;-48
2021/11/22 11:21:40;;;;;;;8.90;7.57;;;13.40;59.40;;;;;;5031004;28;20482;-50
2021/11/22 11:24:06;;;;;;;7.53;6.17;;;13.50;59.40;;;;;;5032860;28;20511;-50
2021/11/22 11:26:34;;;;;;;8.67;5.87;;;13.20;59.50;;;;;;5032857;28;20519;-48
2021/11/22 11:29:00;;;;;;;10.83;6.27;;;13.00;60.50;;;;;;5032130;28;20448;-48
2021/11/22 11:31:27;;;;;;;11.23;7.73;;;13.10;60.20;;;;;;5031617;28;20801;-48
2021/11/22 11:33:54;;;;;;;8.40;5.40;;;13.20;60.20;;;;;;5032649;28;20516;-51
2021/11/22 11:36:46;;;;;;;6.93;5.30;;;13.10;59.50;;;;;;5029549;28;20784;-48
2021/11/22 11:39:29;;;;;;;9.60;6.57;;;12.90;59.90;;;;;;5032471;28;20475;-48
2021/11/22 11:42:39;;;;;;;15.30;6.67;;;12.90;60.20;;;;;;5031838;28;20487;-47
2021/11/22 11:45:13;;;;;;;7.23;5.60;;;13.10;60.50;;;;;;5029616;28;20978;-47
2021/11/22 11:47:56;;;;;;;5.53;4.47;;;12.70;60.50;;;;;;5032600;28;21006;-47
2021/11/22 11:50:33;;;;;;;7.27;6.03;;;12.40;60.10;;;;;;5031767;28;20432;-50
2021/11/22 11:53:08;;;;;;;7.50;5.33;;;12.40;61.60;;;;;;5033067;28;20443;-50
2021/11/22 11:55:35;;;;;;;9.43;5.73;;;12.50;61.80;;;;;;5031800;28;20481;-46
2021/11/22 11:58:26;;;;;;;6.93;6.10;;;12.70;61.00;;;;;;5033181;28;20929;-47
2021/11/22 12:01:00;;;;;;;8.70;5.70;;;12.70;60.80;;;;;;5022997;28;20483;-47
2021/11/22 12:03:31;;;;;;;6.53;5.93;;;12.70;60.60;;;;;;5032642;28;20447;-47
2021/11/22 12:05:58;;;;;;;8.23;6.00;;;12.60;60.20;;;;;;5031865;28;20924;-47
2021/11/22 12:08:33;;;;;;;8.70;5.60;;;12.60;60.70;;;;;;5032410;28;20440;-47
2021/11/22 12:11:04;;;;;;;6.33;5.20;;;12.50;60.70;;;;;;5032121;28;20857;-47
2021/11/22 12:13:57;;;;;;;7.87;5.80;;;12.50;61.00;;;;;;5031280;28;20428;-48
2021/11/22 12:16:58;;;;;;;5.50;5.03;;;12.40;61.00;;;;;;5031487;28;20843;-49
2021/11/22 12:19:33;;;;;;;6.00;5.40;;;12.40;60.80;;;;;;4989414;28;20483;-46
2021/11/22 12:22:13;;;;;;;6.10;4.87;;;12.40;60.30;;;;;;5018477;28;20487;-50
2021/11/22 12:24:42;;;;;;;8.00;4.80;;;12.60;60.40;;;;;;5028789;28;20817;-47
2021/11/22 12:27:26;;;;;;;11.00;4.90;;;12.50;60.00;;;;;;5030405;28;20440;-47
2021/11/22 12:29:53;;;;;;;5.70;5.20;;;12.40;59.70;;;;;;5022105;28;20440;-47
2021/11/22 12:32:26;;;;;;;7.90;5.17;;;12.30;59.90;;;;;;5031468;28;20448;-47
2021/11/22 12:35:04;;;;;;;7.20;5.10;;;12.30;61.00;;;;;;5031824;28;20443;-49
2021/11/22 12:37:33;;;;;;;6.57;5.97;;;12.40;60.80;;;;;;5031051;28;20439;-46
2021/11/22 12:40:13;;;;;;;5.17;4.70;;;12.50;60.20;;;;;;5030300;28;20444;-47